createdAt,value
2023-03-24T00:00:01.934Z,49.23
2023-03-24T00:02:52.584Z,43.97
2023-03-24T00:05:36.816Z,40.00
2023-03-24T00:08:22.556Z,40.13
2023-03-24T00:11:09.310Z,45.13
2023-03-24T00:13:58.689Z,41.50
2023-03-24T00:16:43.775Z,41.43
2023-03-24T00:19:27.873Z,42.20
2023-03-24T00:22:14.594Z,42.47
2023-03-24T00:24:58.578Z,47.77
2023-03-24T00:27:44.947Z,40.83
2023-03-24T00:30:31.720Z,40.60
2023-03-24T00:33:15.762Z,49.07
2023-03-24T00:36:00.059Z,46.07
2023-03-24T00:38:44.299Z,42.47
2023-03-24T00:41:29.118Z,44.87
2023-03-24T00:44:18.078Z,44.97
2023-03-24T00:47:04.695Z,40.10
2023-03-24T00:49:51.132Z,40.23
2023-03-24T00:52:35.613Z,41.30
2023-03-24T00:55:21.640Z,42.50
2023-03-24T00:58:06.011Z,39.67
2023-03-24T01:00:57.279Z,45.27
2023-03-24T01:03:50.802Z,45.43
2023-03-24T01:06:37.890Z,45.63
2023-03-24T01:09:22.882Z,43.90
2023-03-24T01:12:07.394Z,47.60
2023-03-24T01:14:52.414Z,44.63
2023-03-24T01:17:36.604Z,45.70
2023-03-24T01:20:23.275Z,46.10
2023-03-24T01:23:09.054Z,50.37
2023-03-24T01:25:54.367Z,44.90
2023-03-24T01:28:41.166Z,48.13
2023-03-24T01:31:25.467Z,50.17
2023-03-24T01:34:09.738Z,41.53
2023-03-24T01:36:55.350Z,45.50
2023-03-24T01:39:39.600Z,41.90
2023-03-24T01:42:26.752Z,47.93
2023-03-24T01:45:44.201Z,45.40
2023-03-24T01:48:34.526Z,41.90
2023-03-24T01:51:22.935Z,45.10
2023-03-24T01:54:13.264Z,42.83
2023-03-24T01:57:05.212Z,45.97
2023-03-24T01:59:56.272Z,48.50
2023-03-24T02:03:18.536Z,44.83
2023-03-24T02:06:11.345Z,44.43
2023-03-24T02:08:57.662Z,50.37
2023-03-24T02:11:46.378Z,46.23
2023-03-24T02:14:31.308Z,48.03
2023-03-24T02:17:54.767Z,44.97
2023-03-24T02:21:09.406Z,45.03
2023-03-24T02:24:57.894Z,48.47
2023-03-24T02:28:05.985Z,47.10
2023-03-24T02:31:18.442Z,47.87
2023-03-24T02:34:41.200Z,44.20
2023-03-24T02:38:01.111Z,43.87
2023-03-24T02:40:50.883Z,39.77
2023-03-24T02:43:48.379Z,38.33
2023-03-24T02:46:38.012Z,39.17
2023-03-24T02:49:32.541Z,41.23
2023-03-24T02:52:23.183Z,44.83
2023-03-24T02:55:16.570Z,46.80
2023-03-24T02:58:07.467Z,45.53
2023-03-24T03:01:08.784Z,41.03
2023-03-24T03:04:20.055Z,42.13
2023-03-24T03:07:09.884Z,41.03
2023-03-24T03:10:00.275Z,38.77
2023-03-24T03:12:48.107Z,42.40
2023-03-24T03:15:39.308Z,49.40
2023-03-24T03:18:29.430Z,37.87
2023-03-24T03:21:16.226Z,43.47
2023-03-24T03:24:03.751Z,38.17
2023-03-24T03:26:50.272Z,39.80
2023-03-24T03:29:39.661Z,44.17
2023-03-24T03:32:29.810Z,39.30
2023-03-24T03:35:18.548Z,39.37
2023-03-24T03:38:14.201Z,42.20
2023-03-24T03:41:00.636Z,49.83
2023-03-24T03:43:51.110Z,55.37
2023-03-24T03:46:37.010Z,40.07
2023-03-24T03:49:26.613Z,42.17
2023-03-24T03:52:11.091Z,45.73
2023-03-24T03:54:56.769Z,48.33
2023-03-24T03:57:41.373Z,44.23
2023-03-24T04:00:26.319Z,46.77
2023-03-24T04:03:57.989Z,44.57
2023-03-24T04:07:14.085Z,43.37
2023-03-24T04:10:09.900Z,40.57
2023-03-24T04:13:09.754Z,44.20
2023-03-24T04:16:23.909Z,43.20
2023-03-24T04:19:47.309Z,45.30
2023-03-24T04:22:41.556Z,58.83
2023-03-24T04:25:56.852Z,55.17
2023-03-24T04:28:48.865Z,51.33
2023-03-24T04:31:37.427Z,50.70
2023-03-24T04:34:29.584Z,46.30
2023-03-24T04:37:25.849Z,42.87
2023-03-24T04:40:21.126Z,45.27
2023-03-24T04:43:08.634Z,39.50
2023-03-24T04:45:53.753Z,38.70
2023-03-24T04:48:49.403Z,37.60
2023-03-24T04:51:51.995Z,37.40
2023-03-24T04:54:40.604Z,44.87
2023-03-24T04:57:26.736Z,45.77
2023-03-24T05:00:18.661Z,44.47
2023-03-24T05:03:03.032Z,40.87
2023-03-24T05:05:50.345Z,46.23
2023-03-24T05:08:34.489Z,43.37
2023-03-24T05:11:18.433Z,40.80
2023-03-24T05:14:12.613Z,41.67
2023-03-24T05:16:56.861Z,38.73
2023-03-24T05:19:41.728Z,39.97
2023-03-24T05:22:26.000Z,37.33
2023-03-24T05:25:11.181Z,37.17
2023-03-24T05:27:56.027Z,31.00
2023-03-24T05:30:44.412Z,40.03
2023-03-24T05:33:46.194Z,37.63
2023-03-24T05:36:34.202Z,40.10
2023-03-24T05:39:18.429Z,35.87
2023-03-24T05:42:12.662Z,39.27
2023-03-24T05:44:56.640Z,35.73
2023-03-24T05:47:45.895Z,36.93
2023-03-24T05:50:30.152Z,42.60
2023-03-24T05:53:14.164Z,40.07
2023-03-24T05:56:28.104Z,37.80
2023-03-24T05:59:15.604Z,40.17
2023-03-24T06:02:26.035Z,43.90
2023-03-24T06:05:17.938Z,43.40
2023-03-24T06:08:02.130Z,41.07
2023-03-24T06:10:49.654Z,46.63
2023-03-24T06:13:33.733Z,44.77
2023-03-24T06:16:19.089Z,46.43
2023-03-24T06:19:11.112Z,44.43
2023-03-24T06:22:28.753Z,37.47
2023-03-24T06:25:13.863Z,40.00
2023-03-24T06:28:04.443Z,40.40
2023-03-24T06:30:50.534Z,37.73
2023-03-24T06:33:43.750Z,40.70
2023-03-24T06:36:27.863Z,37.30
2023-03-24T06:39:13.969Z,41.77
2023-03-24T06:41:58.231Z,44.30
2023-03-24T06:44:42.745Z,40.67
2023-03-24T06:47:26.975Z,40.77
2023-03-24T06:50:12.512Z,39.77
2023-03-24T06:52:56.649Z,38.97
2023-03-24T06:55:43.210Z,40.77
2023-03-24T06:58:29.282Z,52.77
2023-03-24T07:01:21.654Z,44.90
2023-03-24T07:04:08.974Z,42.77
2023-03-24T07:10:31.411Z,44.60
2023-03-24T07:13:16.980Z,36.80
2023-03-24T07:16:01.186Z,42.27
2023-03-24T07:18:45.662Z,35.63
2023-03-24T07:21:29.855Z,39.80
2023-03-24T07:24:13.964Z,38.87
2023-03-24T07:27:12.295Z,39.70
2023-03-24T07:29:57.669Z,45.03
2023-03-24T07:32:54.822Z,43.63
2023-03-24T07:35:39.334Z,42.50
2023-03-24T07:38:24.240Z,50.70
2023-03-24T07:41:11.367Z,47.57
2023-03-24T07:43:59.773Z,66.10
2023-03-24T07:46:51.474Z,53.30
2023-03-24T07:49:35.757Z,48.53
2023-03-24T07:52:23.524Z,44.20
2023-03-24T07:55:13.337Z,40.13
2023-03-24T07:58:11.577Z,36.20
2023-03-24T08:00:59.873Z,31.47
2023-03-24T08:03:56.401Z,30.40
2023-03-24T08:07:00.387Z,56.63
2023-03-24T08:09:44.788Z,55.23
2023-03-24T08:12:28.681Z,43.33
2023-03-24T08:15:13.207Z,60.53
2023-03-24T08:17:57.835Z,78.57
2023-03-24T08:20:44.240Z,50.27
2023-03-24T08:23:28.496Z,51.87
2023-03-24T08:26:12.554Z,26.73
2023-03-24T08:28:57.048Z,27.90
2023-03-24T08:31:41.153Z,27.47
2023-03-24T08:34:25.331Z,28.80
2023-03-24T08:37:12.126Z,47.23
2023-03-24T08:39:58.909Z,76.80
2023-03-24T08:42:43.190Z,31.93
2023-03-24T08:45:30.736Z,45.70
2023-03-24T08:48:14.882Z,40.57
2023-03-24T08:50:58.942Z,48.93
2023-03-24T08:53:44.686Z,36.63
2023-03-24T08:56:29.240Z,29.03
2023-03-24T08:59:13.208Z,31.83
2023-03-24T09:01:57.330Z,26.73
2023-03-24T09:04:42.745Z,31.50
2023-03-24T09:07:26.876Z,30.10
2023-03-24T09:10:13.139Z,53.37
2023-03-24T09:12:57.230Z,26.40
2023-03-24T09:15:41.380Z,25.70
2023-03-24T09:18:25.924Z,29.43
2023-03-24T09:21:10.133Z,128.80
2023-03-24T09:23:54.338Z,31.07
2023-03-24T09:26:39.930Z,25.90
2023-03-24T09:29:23.835Z,25.92
2023-03-24T09:32:07.984Z,24.83
2023-03-24T09:34:52.359Z,26.05
2023-03-24T09:37:38.640Z,28.13
2023-03-24T09:40:26.103Z,31.63
2023-03-24T09:43:23.264Z,29.50
2023-03-24T09:46:12.865Z,26.13
2023-03-24T09:48:58.280Z,25.95
2023-03-24T09:51:45.353Z,23.10
2023-03-24T09:54:37.929Z,23.50
2023-03-24T09:57:27.332Z,24.38
2023-03-24T10:00:20.488Z,22.80
2023-03-24T10:03:19.517Z,25.30
2023-03-24T10:06:09.569Z,21.88
2023-03-24T10:09:06.191Z,21.10
2023-03-24T10:11:57.525Z,21.30
2023-03-24T10:14:53.328Z,20.25
2023-03-24T10:17:47.813Z,21.25
2023-03-24T10:20:38.882Z,22.98
2023-03-24T10:23:31.298Z,24.83
2023-03-24T10:26:29.695Z,22.20
2023-03-24T10:29:26.178Z,22.70
2023-03-24T10:32:16.757Z,22.80
2023-03-24T10:35:09.781Z,20.88
2023-03-24T10:37:54.446Z,19.48
2023-03-24T10:40:38.547Z,28.55
2023-03-24T10:43:23.675Z,20.83
2023-03-24T10:46:08.182Z,24.33
2023-03-24T10:48:54.703Z,21.38
2023-03-24T10:51:41.520Z,23.00
2023-03-24T10:54:27.741Z,19.52
2023-03-24T10:57:19.649Z,18.58
2023-03-24T11:00:15.008Z,19.75
2023-03-24T11:03:02.031Z,17.40
2023-03-24T11:05:47.135Z,16.83
2023-03-24T11:08:37.833Z,17.63
2023-03-24T11:11:31.300Z,15.93
2023-03-24T11:14:25.504Z,16.13
2023-03-24T11:17:15.463Z,17.20
2023-03-24T11:19:59.591Z,17.05
2023-03-24T11:22:45.858Z,14.68
2023-03-24T11:25:47.180Z,14.65
2023-03-24T11:28:36.676Z,18.13
2023-03-24T11:31:24.752Z,18.75
2023-03-24T11:34:12.394Z,20.63
2023-03-24T11:36:59.463Z,17.85
2023-03-24T11:39:44.411Z,17.33
2023-03-24T11:42:30.144Z,15.73
2023-03-24T11:45:24.659Z,15.68
2023-03-24T11:48:23.409Z,17.88
2023-03-24T11:51:12.618Z,31.38
2023-03-24T11:53:58.374Z,14.90
2023-03-24T11:56:45.951Z,14.82
2023-03-24T11:59:37.729Z,13.55
2023-03-24T12:02:32.020Z,14.40
2023-03-24T12:05:29.263Z,15.25
2023-03-24T12:08:41.125Z,12.48
2023-03-24T12:11:34.326Z,14.00
2023-03-24T12:14:30.859Z,15.07
2023-03-24T12:17:18.812Z,15.35
2023-03-24T12:20:24.125Z,12.95
2023-03-24T12:23:14.577Z,15.27
2023-03-24T12:26:16.876Z,12.57
2023-03-24T12:29:24.998Z,11.77
2023-03-24T12:32:22.913Z,13.13
2023-03-24T12:35:41.629Z,13.20
2023-03-24T12:38:41.471Z,14.88
2023-03-24T12:41:46.090Z,13.90
2023-03-24T12:45:04.984Z,11.82
2023-03-24T12:48:13.718Z,14.00
2023-03-24T12:51:10.402Z,14.00
2023-03-24T12:54:09.551Z,12.35
2023-03-24T12:56:57.319Z,12.38
2023-03-24T12:59:46.099Z,13.98
2023-03-24T13:02:35.555Z,13.07
2023-03-24T13:05:26.606Z,14.48
2023-03-24T13:08:17.822Z,10.90
2023-03-24T13:11:07.010Z,13.35
2023-03-24T13:13:51.259Z,10.70
2023-03-24T13:16:39.349Z,11.30
2023-03-24T13:19:26.233Z,12.70
2023-03-24T13:22:18.332Z,12.05
2023-03-24T13:25:04.137Z,20.98
2023-03-24T13:27:54.888Z,19.10
2023-03-24T13:30:42.294Z,11.30
2023-03-24T13:33:31.608Z,10.65
2023-03-24T13:36:36.233Z,10.70
2023-03-24T13:39:24.173Z,10.52
2023-03-24T13:42:08.268Z,10.25
2023-03-24T13:44:52.310Z,9.55
2023-03-24T13:48:03.975Z,9.68
2023-03-24T13:50:56.576Z,8.90
2023-03-24T13:53:47.492Z,8.82
2023-03-24T13:56:37.187Z,10.30
2023-03-24T13:59:32.985Z,11.07
2023-03-24T14:02:23.598Z,9.60
2023-03-24T14:05:10.489Z,9.77
2023-03-24T14:08:13.244Z,9.40
2023-03-24T14:10:57.254Z,8.88
2023-03-24T14:13:50.659Z,9.32
2023-03-24T14:16:45.596Z,8.38
2023-03-24T14:19:33.173Z,7.20
2023-03-24T14:22:23.365Z,8.83
2023-03-24T14:25:23.223Z,10.48
2023-03-24T14:28:24.184Z,9.48
2023-03-24T14:31:24.525Z,12.73
2023-03-24T14:34:14.958Z,10.38
2023-03-24T14:37:01.708Z,10.73
2023-03-24T14:39:48.312Z,11.73
2023-03-24T14:42:56.576Z,10.60
2023-03-24T14:46:00.151Z,10.93
2023-03-24T14:48:57.739Z,11.88
2023-03-24T14:51:44.777Z,13.40
2023-03-24T14:54:34.239Z,18.50
2023-03-24T14:57:22.355Z,26.30
2023-03-24T15:00:12.106Z,26.38
2023-03-24T15:03:00.286Z,15.13
2023-03-24T15:06:23.441Z,16.67
2023-03-24T15:09:11.780Z,14.82
2023-03-24T15:11:59.011Z,17.10
2023-03-24T15:14:45.485Z,11.23
2023-03-24T15:17:29.641Z,11.55
2023-03-24T15:20:23.980Z,15.30
2023-03-24T15:23:09.405Z,11.93
2023-03-24T15:25:56.060Z,12.20
2023-03-24T15:28:40.930Z,9.93
2023-03-24T15:31:30.394Z,13.07
2023-03-24T15:34:27.997Z,13.70
2023-03-24T15:37:22.137Z,11.90
2023-03-24T15:40:15.570Z,11.63
2023-03-24T15:43:03.941Z,10.33
2023-03-24T15:46:04.677Z,12.27
2023-03-24T15:48:54.437Z,13.00
2023-03-24T15:51:48.984Z,17.73
2023-03-24T15:54:41.194Z,12.70
2023-03-24T15:57:26.704Z,12.27
2023-03-24T16:00:17.821Z,13.10
2023-03-24T16:03:05.343Z,16.20
2023-03-24T16:05:51.720Z,13.17
2023-03-24T16:08:39.310Z,17.70
2023-03-24T16:11:23.434Z,20.87
2023-03-24T16:14:21.812Z,17.23
2023-03-24T16:17:07.430Z,16.90
2023-03-24T16:19:51.479Z,27.57
2023-03-24T16:22:35.897Z,21.60
2023-03-24T16:25:19.848Z,22.93
2023-03-24T16:28:04.530Z,44.53
2023-03-24T16:30:54.307Z,32.17
2023-03-24T16:33:40.163Z,33.80
2023-03-24T16:36:26.725Z,29.97
2023-03-24T16:39:17.089Z,30.77
2023-03-24T16:42:01.277Z,27.37
2023-03-24T16:44:46.534Z,24.93
2023-03-24T16:47:30.564Z,26.50
2023-03-24T16:50:33.667Z,41.83
2023-03-24T16:53:17.784Z,25.77
2023-03-24T16:56:01.604Z,28.20
2023-03-24T16:58:46.491Z,26.37
2023-03-24T17:01:33.554Z,24.57
2023-03-24T17:04:19.751Z,25.47
2023-03-24T17:07:06.398Z,21.87
2023-03-24T17:09:50.467Z,25.93
2023-03-24T17:12:34.652Z,28.63
2023-03-24T17:15:22.120Z,28.47
2023-03-24T17:18:08.455Z,26.63
2023-03-24T17:20:52.709Z,24.33
2023-03-24T17:23:38.566Z,25.17
2023-03-24T17:26:23.476Z,22.73
2023-03-24T17:29:07.703Z,23.80
2023-03-24T17:31:51.777Z,23.83
2023-03-24T17:34:35.729Z,25.50
2023-03-24T17:37:19.635Z,20.57
2023-03-24T17:40:09.690Z,23.07
2023-03-24T17:42:53.620Z,25.07
2023-03-24T17:45:37.573Z,21.27
2023-03-24T17:48:21.568Z,21.57
2023-03-24T17:51:06.430Z,23.70
2023-03-24T17:53:50.833Z,21.77
2023-03-24T17:56:36.362Z,23.57
2023-03-24T17:59:20.201Z,24.30
2023-03-24T18:02:04.188Z,21.90
2023-03-24T18:04:48.191Z,20.97
2023-03-24T18:07:32.371Z,26.70
2023-03-24T18:10:16.352Z,30.27
2023-03-24T18:13:02.218Z,26.87
2023-03-24T18:15:46.458Z,25.40
2023-03-24T18:18:30.672Z,21.63
2023-03-24T18:21:14.775Z,22.07
2023-03-24T18:23:58.783Z,27.33
2023-03-24T18:26:42.760Z,25.57
2023-03-24T18:29:28.309Z,22.40
2023-03-24T18:32:12.675Z,24.63
2023-03-24T18:35:00.893Z,21.80
2023-03-24T18:37:45.759Z,28.47
2023-03-24T18:40:29.611Z,16.27
2023-03-24T18:43:13.597Z,14.63
2023-03-24T18:45:59.252Z,17.83
2023-03-24T18:48:44.434Z,16.27
2023-03-24T18:51:28.823Z,18.27
2023-03-24T18:54:13.977Z,16.37
2023-03-24T18:56:57.996Z,16.13
2023-03-24T18:59:42.430Z,17.33
2023-03-24T19:02:28.013Z,15.43
2023-03-24T19:05:12.896Z,15.13
2023-03-24T19:07:56.872Z,14.60
2023-03-24T19:10:40.834Z,14.03
2023-03-24T19:13:24.935Z,8.90
2023-03-24T19:16:11.257Z,9.50
2023-03-24T19:18:58.090Z,12.57
2023-03-24T19:21:42.159Z,14.77
2023-03-24T19:24:26.482Z,13.17
2023-03-24T19:27:10.527Z,12.97
2023-03-24T19:29:54.607Z,10.17
2023-03-24T19:32:38.781Z,10.00
2023-03-24T19:35:24.329Z,8.17
2023-03-24T19:38:08.521Z,10.30
2023-03-24T19:40:53.966Z,9.17
2023-03-24T19:43:38.012Z,10.33
2023-03-24T19:46:22.197Z,9.63
2023-03-24T19:49:06.451Z,10.23
2023-03-24T19:51:52.020Z,8.57
2023-03-24T19:54:36.144Z,13.27
2023-03-24T19:57:20.397Z,9.17
2023-03-24T20:00:06.434Z,9.97
2023-03-24T20:02:50.502Z,9.53
2023-03-24T20:05:34.878Z,10.40
2023-03-24T20:08:20.687Z,7.43
2023-03-24T20:11:09.553Z,6.63
2023-03-24T20:13:53.492Z,6.73
2023-03-24T20:16:37.451Z,8.00
2023-03-24T20:19:21.473Z,7.13
2023-03-24T20:22:05.423Z,7.17
2023-03-24T20:24:50.994Z,6.87
2023-03-24T20:27:34.997Z,6.13
2023-03-24T20:30:20.941Z,6.27
2023-03-24T20:33:05.048Z,7.00
2023-03-24T20:35:49.300Z,8.43
2023-03-24T20:38:33.577Z,8.73
2023-03-24T20:41:19.695Z,11.67
2023-03-24T20:44:03.664Z,11.30
2023-03-24T20:46:47.611Z,8.40
2023-03-24T20:49:31.575Z,9.27
2023-03-24T20:52:15.659Z,9.13
2023-03-24T20:55:01.283Z,12.07
2023-03-24T20:57:47.694Z,10.13
2023-03-24T21:00:31.893Z,8.63
2023-03-24T21:03:16.009Z,9.27
2023-03-24T21:06:00.145Z,9.63
2023-03-24T21:08:45.227Z,8.27
2023-03-24T21:11:31.347Z,7.33
2023-03-24T21:14:16.910Z,7.87
2023-03-24T21:17:00.865Z,8.63
2023-03-24T21:19:47.038Z,10.23
2023-03-24T21:22:47.373Z,9.30
2023-03-24T21:25:32.792Z,9.03
2023-03-24T21:28:18.046Z,6.60
2023-03-24T21:31:08.562Z,10.27
2023-03-24T21:33:53.933Z,8.63
2023-03-24T21:36:38.673Z,10.67
2023-03-24T21:39:24.106Z,8.10
2023-03-24T21:42:08.009Z,9.97
2023-03-24T21:44:51.903Z,9.57
2023-03-24T21:47:37.578Z,8.80
2023-03-24T21:50:23.489Z,7.63
2023-03-24T21:53:15.427Z,9.60
2023-03-24T21:56:04.846Z,9.07
2023-03-24T21:58:48.932Z,9.00
2023-03-24T22:01:34.203Z,9.30
2023-03-24T22:04:19.809Z,8.37
2023-03-24T22:07:06.928Z,10.43
2023-03-24T22:09:52.549Z,6.83
2023-03-24T22:12:37.087Z,7.70
2023-03-24T22:15:21.744Z,8.43
2023-03-24T22:18:06.145Z,10.20
2023-03-24T22:21:04.426Z,7.70
2023-03-24T22:23:48.439Z,7.93
2023-03-24T22:26:32.427Z,8.17
2023-03-24T22:29:16.335Z,8.43
2023-03-24T22:32:00.441Z,7.43
2023-03-24T22:34:44.502Z,10.27
2023-03-24T22:37:29.927Z,8.27
2023-03-24T22:40:14.063Z,7.63
2023-03-24T22:42:58.011Z,8.77
2023-03-24T22:45:41.989Z,7.47
2023-03-24T22:48:26.114Z,10.20
2023-03-24T22:51:12.697Z,8.77
2023-03-24T22:53:58.305Z,11.03
2023-03-24T22:56:42.300Z,9.73
2023-03-24T22:59:26.666Z,7.83
2023-03-24T23:02:10.830Z,9.90
2023-03-24T23:04:55.170Z,8.97
2023-03-24T23:07:39.452Z,8.10
2023-03-24T23:10:25.682Z,8.97
2023-03-24T23:13:10.803Z,8.13
2023-03-24T23:15:54.948Z,8.20
2023-03-24T23:18:39.136Z,8.73
2023-03-24T23:21:23.124Z,10.70
2023-03-24T23:24:07.570Z,9.50
2023-03-24T23:26:53.184Z,8.43
2023-03-24T23:29:40.602Z,9.23
2023-03-24T23:32:24.649Z,8.50
2023-03-24T23:35:10.232Z,7.93
2023-03-24T23:37:54.315Z,8.67
2023-03-24T23:40:38.410Z,8.23
2023-03-24T23:43:23.846Z,7.80
2023-03-24T23:46:08.871Z,6.93
2023-03-24T23:48:52.815Z,8.23
2023-03-24T23:51:36.838Z,7.47
2023-03-24T23:54:20.895Z,6.40
2023-03-24T23:57:05.115Z,6.87
2023-03-24T23:59:53.191Z,5.90
